หน้าหลัก
METAR-TAF:

METAR-TAF

ท่าอากาศยาน :

Roswell International Air Center

Roswell, นิวเม็กซิโก, สหรัฐอเมริกา

ละติจูด: 33-18-29N, ลองจิจูด: 104-30-28W, ความสูง: 1118 ม.

การสังเกตสภาพอากาศปัจจุบัน

รายงานได้ทำขึ้นเมื่อ 27 นาทีที่แล้ว ณ เวลา 14:51 UTC
ลม 12 นอตจากใต้
อุณหภูมิ 25°C
ความชื้น 65%
ความกดอากาศ 1020 hPa
ทัศนวิสัย: 16.1 กม.
ท้องฟ้าแจ่มใส

METAR: KROW 121451Z 19012KT 10SM CLR 25/18 A3011 RMK AO2 SLP125 T02500178 51008

เวลา: 09:18 (15:18 UTC)

การพยากรณ์

รายงานได้ทำขึ้นเมื่อ 3 ชั่วโมงและ 58 นาทีที่แล้ว ณ เวลา 11:20 UTC
การพยากรณ์มีผลตั้งแต่วันที่ 12 ณ เวลา 12 UTC จนถึงวันที่ 13 ณ เวลา 12 UTC
ลม 8 นอตจากใต้/ตะวันออกเฉียงใต้
ทัศนวิสัย: 10 กม.
ท้องฟ้าแจ่มใส
ชั่วคราว
ตั้งแต่วันที่ 12 ณ เวลา 22 UTC จนถึงวันที่ 13 ณ เวลา 02 UTC
มีเมฆกระจายเป็นบางส่วนที่ความสูง 12000 ฟุต

TAF: KROW 121120Z 1212/1312 16008KT P6SM SKC TEMPO 1222/1302 SCT120

สังเกตการณ์สภาพอากาศและพยากรณ์อากาศของสนามบินมากกว่า 4000 แห่ง (รายงาน METAR และ TAF).

สถานีที่ดูได้จะแสดงไว้ด้วยจุดสีเหลืองและสีแดงบนแผนที่.

เลื่อนเมาส์ไปเหนือจุดเพื่อดูชื่อสถานี.

แล้วคลิกเพื่อดูสังเกตการณ์และการพยากรณ์สภาพอากาศ.

ในการเปลี่ยนแผนที่: คลิกที่ปุ่มสีเขียวที่มีกากบาทสีดำเพื่อซูมเข้า; ที่ปุ่มสีเขียวที่มีขีดเพื่อซูมออก; หรือที่ลูกศรสีเขียวเพื่อไปยังแผนที่ที่อยู่ติดกัน.


METAR-TAF: